AFL209 ZSPD-UUEE
Flight info
| Callsign | AFL209 |
|---|---|
| Flight time | N/A |
| Altitude | 32100 |
| Route | PIK95D PIKAS G330 PIMOL A593 SUBKU/K0919S1040 A593 DALIM W157 BEKDO/K0904S1010 W157 VYK G212 SOTMU/K0898S1040 B339 UDA A575 DARNO/K0896F340 A575 KZL/K0889F360 A575 NOSPI L158 UBIRA/K0904F380 L158 DIMGI DIMGI3F |
| Aircraft | B77W/H-SDE1E2E3FGHIJ2J3J4J5M1RWXY/LB1D1 |
Departure
| Time | N/A |
|---|---|
| Airport | Shanghai Pudong International Airport (ZSPD) |
Arrival
| Time | 2026-04-30 13:18 |
|---|---|
| Airport | Sheremetyevo International Airport (UUEE) |
| Time | Latitude | Longitude | Altitude | Speed | Heading |
|---|---|---|---|---|---|
| 2026-04-30 11:51 | 55.41165 | 52.57321 | 38137 ft | 457 kts | 264° |
| 2026-04-30 11:51 | 55.41118 | 52.46139 | 38157 ft | 457 kts | 264° |
| 2026-04-30 11:52 | 55.41062 | 52.35005 | 38147 ft | 459 kts | 265° |
| 2026-04-30 11:52 | 55.40998 | 52.23747 | 38144 ft | 460 kts | 264° |
| 2026-04-30 11:53 | 55.40923 | 52.12460 | 38142 ft | 461 kts | 264° |
| 2026-04-30 11:53 | 55.40838 | 52.01177 | 38146 ft | 462 kts | 264° |
| 2026-04-30 11:54 | 55.40742 | 51.89856 | 38143 ft | 462 kts | 264° |
| 2026-04-30 11:54 | 55.40637 | 51.78549 | 38137 ft | 463 kts | 264° |
| 2026-04-30 11:55 | 55.40518 | 51.67209 | 38147 ft | 463 kts | 264° |
| 2026-04-30 11:55 | 55.40391 | 51.55879 | 38148 ft | 463 kts | 264° |
| 2026-04-30 11:56 | 55.40253 | 51.44520 | 38153 ft | 464 kts | 264° |
| 2026-04-30 11:56 | 55.40105 | 51.33230 | 38154 ft | 465 kts | 264° |
| 2026-04-30 11:57 | 55.39947 | 51.21855 | 38150 ft | 465 kts | 264° |
| 2026-04-30 11:57 | 55.39780 | 51.10474 | 38136 ft | 465 kts | 264° |
| 2026-04-30 11:58 | 55.39704 | 50.99039 | 38148 ft | 467 kts | 265° |
| 2026-04-30 11:58 | 55.39664 | 50.87669 | 38150 ft | 468 kts | 265° |
| 2026-04-30 11:59 | 55.39602 | 50.76192 | 38145 ft | 468 kts | 265° |
| 2026-04-30 11:59 | 55.39520 | 50.64734 | 38155 ft | 468 kts | 265° |
| 2026-04-30 12:00 | 55.39422 | 50.53258 | 38158 ft | 469 kts | 265° |
| 2026-04-30 12:00 | 55.39315 | 50.41760 | 38146 ft | 470 kts | 265° |
| 2026-04-30 12:01 | 55.39199 | 50.30309 | 38152 ft | 472 kts | 265° |
| 2026-04-30 12:01 | 55.39070 | 50.18742 | 38149 ft | 473 kts | 265° |
| 2026-04-30 12:02 | 55.38932 | 50.07152 | 38150 ft | 474 kts | 264° |
| 2026-04-30 12:02 | 55.38847 | 49.95542 | 38157 ft | 476 kts | 268° |
| 2026-04-30 12:03 | 55.39703 | 49.78133 | 38150 ft | 478 kts | 271° |
| 2026-04-30 12:04 | 55.40300 | 49.66473 | 38146 ft | 478 kts | 270° |
| 2026-04-30 12:04 | 55.40855 | 49.54818 | 38151 ft | 478 kts | 270° |
| 2026-04-30 12:05 | 55.41393 | 49.43233 | 38141 ft | 478 kts | 270° |
| 2026-04-30 12:05 | 55.41924 | 49.31573 | 38145 ft | 478 kts | 270° |
| 2026-04-30 12:06 | 55.42446 | 49.19889 | 38146 ft | 478 kts | 270° |
| 2026-04-30 12:06 | 55.42957 | 49.08229 | 38143 ft | 477 kts | 270° |
| 2026-04-30 12:07 | 55.43454 | 48.96636 | 38159 ft | 478 kts | 270° |
| 2026-04-30 12:07 | 55.43944 | 48.84944 | 38150 ft | 479 kts | 270° |
| 2026-04-30 12:08 | 55.44425 | 48.73221 | 38148 ft | 480 kts | 270° |
| 2026-04-30 12:08 | 55.44894 | 48.61542 | 38147 ft | 481 kts | 270° |
| 2026-04-30 12:09 | 55.45836 | 48.49814 | 38150 ft | 486 kts | 280° |
| 2026-04-30 12:09 | 55.47782 | 48.38331 | 38148 ft | 489 kts | 284° |
| 2026-04-30 12:10 | 55.49833 | 48.26855 | 38153 ft | 490 kts | 284° |
| 2026-04-30 12:10 | 55.51828 | 48.15430 | 38156 ft | 490 kts | 283° |
| 2026-04-30 12:11 | 55.53804 | 48.03888 | 38141 ft | 490 kts | 283° |
| 2026-04-30 12:11 | 55.55759 | 47.92357 | 38149 ft | 490 kts | 283° |
| 2026-04-30 12:12 | 55.57693 | 47.80880 | 38152 ft | 490 kts | 283° |
| 2026-04-30 12:12 | 55.59631 | 47.69317 | 38167 ft | 490 kts | 283° |
| 2026-04-30 12:13 | 55.61559 | 47.57739 | 38150 ft | 490 kts | 283° |
| 2026-04-30 12:13 | 55.63473 | 47.46169 | 38143 ft | 490 kts | 283° |
| 2026-04-30 12:14 | 55.65374 | 47.34600 | 38146 ft | 489 kts | 283° |
| 2026-04-30 12:14 | 55.67253 | 47.23094 | 38146 ft | 489 kts | 283° |
| 2026-04-30 12:15 | 55.69133 | 47.11504 | 38166 ft | 489 kts | 283° |
| 2026-04-30 12:15 | 55.71002 | 46.99918 | 38155 ft | 489 kts | 283° |
| 2026-04-30 12:16 | 55.72863 | 46.88317 | 38145 ft | 489 kts | 283° |
| 2026-04-30 12:16 | 55.74715 | 46.76690 | 38145 ft | 489 kts | 283° |
| 2026-04-30 12:17 | 55.77464 | 46.59282 | 38151 ft | 489 kts | 283° |
| 2026-04-30 12:17 | 55.79176 | 46.47599 | 38162 ft | 487 kts | 278° |
| 2026-04-30 12:18 | 55.79876 | 46.35673 | 38159 ft | 484 kts | 271° |
| 2026-04-30 12:18 | 55.80206 | 46.23707 | 38152 ft | 484 kts | 270° |
| 2026-04-30 12:19 | 55.80544 | 46.11751 | 38151 ft | 484 kts | 271° |
| 2026-04-30 12:19 | 55.80901 | 45.99865 | 38151 ft | 484 kts | 271° |
| 2026-04-30 12:20 | 55.81260 | 45.87920 | 38154 ft | 484 kts | 271° |
| 2026-04-30 12:20 | 55.81607 | 45.75962 | 38169 ft | 484 kts | 271° |
| 2026-04-30 12:21 | 55.81939 | 45.64013 | 38154 ft | 484 kts | 271° |
| 2026-04-30 12:21 | 55.82261 | 45.52046 | 38154 ft | 484 kts | 271° |
| 2026-04-30 12:22 | 55.82569 | 45.40172 | 38150 ft | 484 kts | 271° |
| 2026-04-30 12:22 | 55.82867 | 45.28204 | 38159 ft | 484 kts | 270° |
| 2026-04-30 12:23 | 55.83153 | 45.16244 | 38162 ft | 484 kts | 270° |
| 2026-04-30 12:23 | 55.83431 | 45.04272 | 38156 ft | 484 kts | 270° |
| 2026-04-30 12:24 | 55.83693 | 44.92376 | 38166 ft | 484 kts | 271° |
| 2026-04-30 12:24 | 55.83949 | 44.80398 | 38159 ft | 485 kts | 270° |
| 2026-04-30 12:25 | 55.84196 | 44.68397 | 38166 ft | 485 kts | 270° |
| 2026-04-30 12:25 | 55.84432 | 44.56386 | 38155 ft | 486 kts | 270° |
| 2026-04-30 12:26 | 55.84656 | 44.44370 | 38156 ft | 486 kts | 270° |
| 2026-04-30 12:26 | 55.84835 | 44.34314 | 38160 ft | 485 kts | 270° |
| 2026-04-30 12:27 | 55.85036 | 44.22371 | 38168 ft | 486 kts | 270° |
| 2026-04-30 12:27 | 55.85226 | 44.10337 | 38161 ft | 486 kts | 270° |
| 2026-04-30 12:28 | 55.85406 | 43.98300 | 38158 ft | 486 kts | 270° |
| 2026-04-30 12:28 | 55.85573 | 43.86274 | 38158 ft | 486 kts | 270° |
| 2026-04-30 12:29 | 55.85728 | 43.74315 | 38162 ft | 486 kts | 270° |
| 2026-04-30 12:29 | 55.85873 | 43.62286 | 38168 ft | 486 kts | 270° |
| 2026-04-30 12:30 | 55.86007 | 43.50244 | 38163 ft | 486 kts | 270° |
| 2026-04-30 12:30 | 55.86135 | 43.38200 | 38167 ft | 486 kts | 270° |
| 2026-04-30 12:31 | 55.86258 | 43.26167 | 38164 ft | 486 kts | 270° |
| 2026-04-30 12:31 | 55.86369 | 43.14134 | 38163 ft | 486 kts | 270° |
| 2026-04-30 12:32 | 55.86468 | 43.02159 | 38165 ft | 486 kts | 270° |
| 2026-04-30 12:32 | 55.86554 | 42.90131 | 38166 ft | 486 kts | 270° |
| 2026-04-30 12:33 | 55.86629 | 42.78107 | 38172 ft | 486 kts | 270° |
| 2026-04-30 12:33 | 55.86692 | 42.66082 | 38173 ft | 486 kts | 270° |
| 2026-04-30 12:34 | 55.86743 | 42.54059 | 38170 ft | 486 kts | 270° |
| 2026-04-30 12:34 | 55.86783 | 42.42103 | 38173 ft | 486 kts | 270° |
| 2026-04-30 12:35 | 55.86811 | 42.30081 | 38175 ft | 485 kts | 270° |
| 2026-04-30 12:35 | 55.86828 | 42.18044 | 38172 ft | 485 kts | 269° |
| 2026-04-30 12:36 | 55.86832 | 42.06024 | 38181 ft | 485 kts | 269° |
| 2026-04-30 12:36 | 55.86825 | 41.93988 | 38193 ft | 485 kts | 269° |
| 2026-04-30 12:37 | 55.86809 | 41.81973 | 38188 ft | 485 kts | 269° |
| 2026-04-30 12:37 | 55.86665 | 41.70037 | 38186 ft | 485 kts | 266° |
| 2026-04-30 12:38 | 55.86256 | 41.58068 | 38178 ft | 484 kts | 266° |
| 2026-04-30 12:38 | 55.85830 | 41.46112 | 38185 ft | 484 kts | 266° |
| 2026-04-30 12:39 | 55.85433 | 41.34135 | 38185 ft | 485 kts | 266° |
| 2026-04-30 12:39 | 55.85040 | 41.22133 | 38195 ft | 485 kts | 266° |
| 2026-04-30 12:40 | 55.84637 | 41.10179 | 38182 ft | 486 kts | 266° |
| 2026-04-30 12:40 | 55.84218 | 40.98171 | 38195 ft | 486 kts | 266° |
| 2026-04-30 12:41 | 55.83782 | 40.86041 | 37338 ft | 498 kts | 266° |
| 2026-04-30 12:41 | 55.83558 | 40.79914 | 36703 ft | 495 kts | 266° |
| 2026-04-30 12:41 | 55.83331 | 40.73806 | 35970 ft | 493 kts | 266° |
| 2026-04-30 12:42 | 55.83104 | 40.67723 | 35171 ft | 493 kts | 266° |
| 2026-04-30 12:42 | 55.82875 | 40.61717 | 34351 ft | 494 kts | 266° |
| 2026-04-30 12:42 | 55.82634 | 40.55618 | 33351 ft | 494 kts | 266° |
| 2026-04-30 12:42 | 55.82386 | 40.49526 | 32400 ft | 493 kts | 266° |
| 2026-04-30 12:43 | 55.82134 | 40.43455 | 31467 ft | 491 kts | 266° |
| 2026-04-30 12:43 | 55.81881 | 40.37406 | 30608 ft | 489 kts | 266° |
| 2026-04-30 12:43 | 55.81627 | 40.31431 | 29928 ft | 481 kts | 266° |
| 2026-04-30 12:43 | 55.81376 | 40.25537 | 29199 ft | 473 kts | 266° |
| 2026-04-30 12:44 | 55.81128 | 40.19763 | 28566 ft | 466 kts | 266° |
| 2026-04-30 12:44 | 55.80880 | 40.14044 | 27951 ft | 458 kts | 266° |
| 2026-04-30 12:44 | 55.80635 | 40.08438 | 27352 ft | 451 kts | 266° |
| 2026-04-30 12:44 | 55.80390 | 40.02927 | 26856 ft | 443 kts | 266° |
| 2026-04-30 12:45 | 55.80150 | 39.97562 | 26722 ft | 427 kts | 266° |
| 2026-04-30 12:45 | 55.79916 | 39.92365 | 26532 ft | 414 kts | 266° |
| 2026-04-30 12:45 | 55.79691 | 39.87410 | 26387 ft | 402 kts | 266° |
| 2026-04-30 12:45 | 55.79466 | 39.82520 | 26208 ft | 390 kts | 265° |
| 2026-04-30 12:46 | 55.79219 | 39.77771 | 25993 ft | 380 kts | 264° |
| 2026-04-30 12:46 | 55.78922 | 39.73158 | 25768 ft | 372 kts | 263° |
| 2026-04-30 12:46 | 55.78614 | 39.68642 | 25564 ft | 365 kts | 263° |
| 2026-04-30 12:46 | 55.78309 | 39.64168 | 25355 ft | 366 kts | 263° |
| 2026-04-30 12:47 | 55.78004 | 39.59650 | 25148 ft | 369 kts | 263° |
| 2026-04-30 12:47 | 55.77704 | 39.55160 | 24932 ft | 372 kts | 264° |
| 2026-04-30 12:47 | 55.77399 | 39.50568 | 24701 ft | 372 kts | 264° |
| 2026-04-30 12:47 | 55.77094 | 39.46011 | 24494 ft | 371 kts | 264° |
| 2026-04-30 12:48 | 55.76787 | 39.41459 | 24272 ft | 370 kts | 263° |
| 2026-04-30 12:48 | 55.76483 | 39.36998 | 24159 ft | 366 kts | 263° |
| 2026-04-30 12:48 | 55.76171 | 39.32532 | 24042 ft | 361 kts | 263° |
| 2026-04-30 12:48 | 55.75860 | 39.28131 | 23939 ft | 357 kts | 263° |
| 2026-04-30 12:49 | 55.75552 | 39.23773 | 23854 ft | 356 kts | 263° |
| 2026-04-30 12:49 | 55.75241 | 39.19398 | 23765 ft | 359 kts | 263° |
| 2026-04-30 12:49 | 55.74927 | 39.14986 | 23656 ft | 361 kts | 263° |
| 2026-04-30 12:49 | 55.74610 | 39.10549 | 23560 ft | 362 kts | 263° |
| 2026-04-30 12:50 | 55.74292 | 39.06121 | 23462 ft | 361 kts | 263° |
| 2026-04-30 12:50 | 55.73973 | 39.01697 | 23357 ft | 361 kts | 263° |
| 2026-04-30 12:50 | 55.73653 | 38.97284 | 23259 ft | 360 kts | 263° |
| 2026-04-30 12:50 | 55.73356 | 38.92876 | 23130 ft | 360 kts | 266° |
| 2026-04-30 12:51 | 55.73396 | 38.88409 | 22730 ft | 363 kts | 275° |
| 2026-04-30 12:51 | 55.73661 | 38.83972 | 22364 ft | 360 kts | 277° |
| 2026-04-30 12:51 | 55.73957 | 38.79585 | 22005 ft | 356 kts | 277° |
| 2026-04-30 12:51 | 55.74224 | 38.75296 | 21633 ft | 352 kts | 277° |
| 2026-04-30 12:52 | 55.74463 | 38.70946 | 21295 ft | 348 kts | 276° |
| 2026-04-30 12:52 | 55.74675 | 38.66729 | 20939 ft | 346 kts | 276° |
| 2026-04-30 12:52 | 55.74879 | 38.62485 | 20596 ft | 343 kts | 276° |
| 2026-04-30 12:52 | 55.75143 | 38.58308 | 20277 ft | 335 kts | 285° |
| 2026-04-30 12:53 | 55.76035 | 38.54537 | 20217 ft | 333 kts | 303° |
| 2026-04-30 12:53 | 55.77376 | 38.51185 | 20225 ft | 339 kts | 307° |
| 2026-04-30 12:53 | 55.78783 | 38.47764 | 20224 ft | 345 kts | 306° |
| 2026-04-30 12:53 | 55.80186 | 38.44294 | 20216 ft | 346 kts | 306° |
| 2026-04-30 12:54 | 55.81562 | 38.40838 | 20204 ft | 337 kts | 306° |
| 2026-04-30 12:54 | 55.82897 | 38.37471 | 20199 ft | 326 kts | 306° |
| 2026-04-30 12:54 | 55.84245 | 38.34261 | 19834 ft | 324 kts | 308° |
| 2026-04-30 12:54 | 55.85622 | 38.31119 | 19529 ft | 319 kts | 308° |
| 2026-04-30 12:55 | 55.86983 | 38.28029 | 19221 ft | 315 kts | 308° |
| 2026-04-30 12:55 | 55.88327 | 38.24967 | 18933 ft | 312 kts | 308° |
| 2026-04-30 12:55 | 55.89654 | 38.21925 | 18623 ft | 310 kts | 308° |
| 2026-04-30 12:55 | 55.90966 | 38.18904 | 18313 ft | 307 kts | 308° |
| 2026-04-30 12:56 | 55.92267 | 38.15898 | 17996 ft | 304 kts | 308° |
| 2026-04-30 12:56 | 55.93551 | 38.12923 | 17704 ft | 300 kts | 308° |
| 2026-04-30 12:56 | 55.94819 | 38.09982 | 17432 ft | 298 kts | 308° |
| 2026-04-30 12:56 | 55.96084 | 38.07046 | 17141 ft | 299 kts | 308° |
| 2026-04-30 12:57 | 55.97339 | 38.04128 | 16860 ft | 302 kts | 308° |
| 2026-04-30 12:57 | 55.98623 | 38.01138 | 16580 ft | 303 kts | 308° |
| 2026-04-30 12:57 | 55.99894 | 37.98147 | 16284 ft | 300 kts | 305° |
| 2026-04-30 12:57 | 56.00735 | 37.94797 | 16044 ft | 294 kts | 283° |
| 2026-04-30 12:58 | 56.01083 | 37.91203 | 15906 ft | 295 kts | 281° |
| 2026-04-30 12:58 | 56.01453 | 37.87551 | 15715 ft | 300 kts | 282° |
| 2026-04-30 12:58 | 56.01837 | 37.83870 | 15535 ft | 302 kts | 282° |
| 2026-04-30 12:58 | 56.02270 | 37.80227 | 15306 ft | 296 kts | 291° |
| 2026-04-30 12:59 | 56.03316 | 37.77144 | 15109 ft | 291 kts | 315° |
| 2026-04-30 12:59 | 56.04904 | 37.75018 | 14872 ft | 291 kts | 333° |
| 2026-04-30 12:59 | 56.06745 | 37.73505 | 14625 ft | 292 kts | 336° |
| 2026-04-30 12:59 | 56.08605 | 37.72004 | 14369 ft | 294 kts | 336° |
| 2026-04-30 13:00 | 56.10468 | 37.70479 | 14110 ft | 294 kts | 335° |
| 2026-04-30 13:00 | 56.12324 | 37.69008 | 13810 ft | 286 kts | 341° |
| 2026-04-30 13:00 | 56.14262 | 37.68574 | 13533 ft | 279 kts | 3° |
| 2026-04-30 13:00 | 56.16196 | 37.68904 | 13329 ft | 281 kts | 4° |
| 2026-04-30 13:01 | 56.18156 | 37.69223 | 13068 ft | 285 kts | 4° |
| 2026-04-30 13:01 | 56.20138 | 37.69536 | 12816 ft | 286 kts | 4° |
| 2026-04-30 13:01 | 56.22127 | 37.69845 | 12564 ft | 286 kts | 4° |
| 2026-04-30 13:01 | 56.24109 | 37.70150 | 12298 ft | 285 kts | 4° |
| 2026-04-30 13:02 | 56.26080 | 37.70452 | 12077 ft | 282 kts | 4° |
| 2026-04-30 13:02 | 56.28025 | 37.70745 | 11808 ft | 275 kts | 1° |
| 2026-04-30 13:02 | 56.29861 | 37.70266 | 11544 ft | 264 kts | 336° |
| 2026-04-30 13:02 | 56.31378 | 37.68504 | 11323 ft | 257 kts | 317° |
| 2026-04-30 13:03 | 56.32565 | 37.66164 | 11109 ft | 253 kts | 310° |
| 2026-04-30 13:03 | 56.33673 | 37.63715 | 10888 ft | 251 kts | 310° |
| 2026-04-30 13:03 | 56.34776 | 37.61273 | 10688 ft | 250 kts | 310° |
| 2026-04-30 13:03 | 56.35863 | 37.58831 | 10449 ft | 247 kts | 304° |
| 2026-04-30 13:04 | 56.36455 | 37.55964 | 10142 ft | 248 kts | 275° |
| 2026-04-30 13:04 | 56.36205 | 37.52939 | 9832 ft | 248 kts | 251° |
| 2026-04-30 13:04 | 56.35353 | 37.50273 | 9604 ft | 246 kts | 234° |
| 2026-04-30 13:04 | 56.34255 | 37.47929 | 9354 ft | 243 kts | 231° |
| 2026-04-30 13:05 | 56.33141 | 37.45665 | 9163 ft | 240 kts | 231° |
| 2026-04-30 13:05 | 56.32040 | 37.43422 | 8952 ft | 238 kts | 231° |
| 2026-04-30 13:05 | 56.30949 | 37.41170 | 8766 ft | 240 kts | 232° |
| 2026-04-30 13:06 | 56.28748 | 37.36577 | 8372 ft | 243 kts | 232° |
| 2026-04-30 13:06 | 56.27646 | 37.34272 | 8155 ft | 242 kts | 232° |
| 2026-04-30 13:06 | 56.26548 | 37.31976 | 7918 ft | 241 kts | 231° |
| 2026-04-30 13:06 | 56.25240 | 37.30185 | 7707 ft | 239 kts | 200° |
| 2026-04-30 13:07 | 56.23596 | 37.30015 | 7544 ft | 241 kts | 169° |
| 2026-04-30 13:07 | 56.21954 | 37.30805 | 7355 ft | 248 kts | 166° |
| 2026-04-30 13:07 | 56.20279 | 37.31636 | 7116 ft | 250 kts | 166° |
| 2026-04-30 13:07 | 56.18638 | 37.32520 | 6891 ft | 246 kts | 157° |
| 2026-04-30 13:08 | 56.17321 | 37.34413 | 6667 ft | 242 kts | 122° |
| 2026-04-30 13:08 | 56.16776 | 37.37207 | 6488 ft | 238 kts | 93° |
| 2026-04-30 13:08 | 56.16905 | 37.40162 | 6285 ft | 239 kts | 75° |
| 2026-04-30 13:08 | 56.17331 | 37.43040 | 6074 ft | 242 kts | 72° |
| 2026-04-30 13:09 | 56.17793 | 37.45938 | 5861 ft | 242 kts | 72° |
| 2026-04-30 13:09 | 56.18247 | 37.48852 | 5649 ft | 241 kts | 72° |
| 2026-04-30 13:09 | 56.18690 | 37.51748 | 5440 ft | 240 kts | 72° |
| 2026-04-30 13:09 | 56.19127 | 37.54631 | 5238 ft | 239 kts | 72° |
| 2026-04-30 13:10 | 56.19442 | 37.57524 | 4999 ft | 235 kts | 90° |
| 2026-04-30 13:10 | 56.19190 | 37.59393 | 4878 ft | 233 kts | 118° |
| 2026-04-30 13:10 | 56.18166 | 37.61644 | 4825 ft | 237 kts | 135° |
| 2026-04-30 13:10 | 56.16987 | 37.63789 | 4643 ft | 245 kts | 134° |
| 2026-04-30 13:11 | 56.15798 | 37.65978 | 4479 ft | 243 kts | 134° |
| 2026-04-30 13:11 | 56.14625 | 37.68132 | 4314 ft | 239 kts | 134° |
| 2026-04-30 13:11 | 56.13472 | 37.70246 | 4153 ft | 235 kts | 134° |
| 2026-04-30 13:11 | 56.12346 | 37.72302 | 4017 ft | 227 kts | 134° |
| 2026-04-30 13:12 | 56.11271 | 37.74268 | 3914 ft | 216 kts | 134° |
| 2026-04-30 13:12 | 56.10234 | 37.76148 | 3737 ft | 206 kts | 137° |
| 2026-04-30 13:12 | 56.08991 | 37.77265 | 3578 ft | 201 kts | 178° |
| 2026-04-30 13:13 | 56.06300 | 37.76090 | 3383 ft | 205 kts | 200° |
| 2026-04-30 13:13 | 56.04943 | 37.75328 | 3257 ft | 204 kts | 200° |
| 2026-04-30 13:13 | 56.02340 | 37.73669 | 2944 ft | 193 kts | 219° |
| 2026-04-30 13:14 | 56.01651 | 37.71807 | 2862 ft | 173 kts | 258° |
| 2026-04-30 13:14 | 56.01374 | 37.69827 | 2762 ft | 158 kts | 258° |
| 2026-04-30 13:14 | 56.00834 | 37.66298 | 2592 ft | 140 kts | 258° |
| 2026-04-30 13:15 | 56.00579 | 37.64587 | 2520 ft | 146 kts | 258° |
| 2026-04-30 13:15 | 56.00059 | 37.61117 | 2286 ft | 142 kts | 258° |
| 2026-04-30 13:15 | 55.99804 | 37.59399 | 2161 ft | 143 kts | 258° |
| 2026-04-30 13:16 | 55.99544 | 37.57716 | 2069 ft | 142 kts | 258° |
| 2026-04-30 13:16 | 55.99281 | 37.56033 | 1942 ft | 139 kts | 258° |
| 2026-04-30 13:16 | 55.99030 | 37.54378 | 1814 ft | 139 kts | 259° |
| 2026-04-30 13:17 | 55.98551 | 37.50954 | 1514 ft | 147 kts | 259° |
| 2026-04-30 13:17 | 55.98288 | 37.49171 | 1324 ft | 149 kts | 256° |
| 2026-04-30 13:17 | 55.97762 | 37.45622 | 818 ft | 143 kts | 257° |
| 2026-04-30 13:18 | 55.97511 | 37.43966 | 655 ft | 130 kts | 257° |
| 2026-04-30 13:18 | 55.97192 | 37.41813 | 644 ft | 39 kts | 255° |
| 2026-04-30 13:18 | 55.97147 | 37.41526 | 648 ft | 21 kts | 255° |
| 2026-04-30 13:19 | 55.97161 | 37.41369 | 649 ft | 13 kts | 316° |
| 2026-04-30 13:19 | 55.97246 | 37.41307 | 651 ft | 13 kts | 344° |
| 2026-04-30 13:19 | 55.97336 | 37.41264 | 652 ft | 13 kts | 345° |
| 2026-04-30 13:19 | 55.97425 | 37.41222 | 651 ft | 13 kts | 345° |
| 2026-04-30 13:20 | 55.97515 | 37.41180 | 649 ft | 13 kts | 345° |
| 2026-04-30 13:20 | 55.97597 | 37.41114 | 646 ft | 13 kts | 303° |
| 2026-04-30 13:20 | 55.97646 | 37.41018 | 645 ft | 9 kts | 1° |
| 2026-04-30 13:20 | 55.97697 | 37.41066 | 649 ft | 4 kts | 32° |
| 2026-04-30 13:21 | 55.97705 | 37.41075 | 649 ft | 0 kts | 32° |